sensor_id;sensor_type;location;lat;lon;timestamp;P1;durP1;ratioP1;P2;durP2;ratioP2
70010;SDS011;59543;37.950;-122.338;2022-12-29T00:02:25;40.65;;;7.75;;
70010;SDS011;59543;37.950;-122.338;2022-12-29T00:04:52;34.90;;;7.80;;
70010;SDS011;59543;37.950;-122.338;2022-12-29T00:07:18;39.85;;;8.60;;
70010;SDS011;59543;37.950;-122.338;2022-12-29T00:09:44;32.28;;;8.20;;
70010;SDS011;59543;37.950;-122.338;2022-12-29T00:12:11;33.60;;;7.97;;
70010;SDS011;59543;37.950;-122.338;2022-12-29T00:14:37;34.28;;;7.75;;
70010;SDS011;59543;37.950;-122.338;2022-12-29T00:17:21;32.80;;;7.97;;
70010;SDS011;59543;37.950;-122.338;2022-12-29T00:19:47;39.20;;;8.32;;
70010;SDS011;59543;37.950;-122.338;2022-12-29T00:22:32;37.30;;;9.32;;
70010;SDS011;59543;37.950;-122.338;2022-12-29T00:25:16;38.58;;;8.57;;
70010;SDS011;59543;37.950;-122.338;2022-12-29T00:28:01;38.42;;;8.57;;
70010;SDS011;59543;37.950;-122.338;2022-12-29T00:30:45;36.35;;;7.50;;
70010;SDS011;59543;37.950;-122.338;2022-12-29T00:33:31;48.95;;;8.68;;
70010;SDS011;59543;37.950;-122.338;2022-12-29T00:36:21;40.85;;;8.65;;
70010;SDS011;59543;37.950;-122.338;2022-12-29T00:38:56;41.10;;;9.13;;
70010;SDS011;59543;37.950;-122.338;2022-12-29T00:41:44;35.80;;;8.77;;
70010;SDS011;59543;37.950;-122.338;2022-12-29T00:44:29;48.13;;;9.88;;
70010;SDS011;59543;37.950;-122.338;2022-12-29T00:46:55;38.80;;;9.40;;
70010;SDS011;59543;37.950;-122.338;2022-12-29T00:49:21;36.35;;;9.27;;
70010;SDS011;59543;37.950;-122.338;2022-12-29T00:52:14;36.58;;;8.68;;
70010;SDS011;59543;37.950;-122.338;2022-12-29T00:54:41;41.30;;;8.45;;
70010;SDS011;59543;37.950;-122.338;2022-12-29T00:57:10;44.25;;;8.52;;
70010;SDS011;59543;37.950;-122.338;2022-12-29T00:59:38;34.78;;;7.82;;
70010;SDS011;59543;37.950;-122.338;2022-12-29T01:02:05;27.92;;;7.35;;
70010;SDS011;59543;37.950;-122.338;2022-12-29T01:04:32;35.22;;;8.32;;
70010;SDS011;59543;37.950;-122.338;2022-12-29T01:06:59;43.92;;;8.90;;
70010;SDS011;59543;37.950;-122.338;2022-12-29T01:09:25;47.65;;;10.57;;
70010;SDS011;59543;37.950;-122.338;2022-12-29T01:12:10;56.00;;;11.38;;
70010;SDS011;59543;37.950;-122.338;2022-12-29T01:14:37;53.17;;;10.85;;
70010;SDS011;59543;37.950;-122.338;2022-12-29T01:17:03;50.13;;;10.27;;
70010;SDS011;59543;37.950;-122.338;2022-12-29T01:19:30;45.83;;;9.93;;
70010;SDS011;59543;37.950;-122.338;2022-12-29T01:21:56;42.67;;;9.60;;
70010;SDS011;59543;37.950;-122.338;2022-12-29T01:24:22;38.03;;;9.35;;
70010;SDS011;59543;37.950;-122.338;2022-12-29T01:26:51;39.63;;;9.10;;
70010;SDS011;59543;37.950;-122.338;2022-12-29T01:29:19;36.40;;;8.60;;
70010;SDS011;59543;37.950;-122.338;2022-12-29T01:31:46;39.47;;;8.63;;
70010;SDS011;59543;37.950;-122.338;2022-12-29T01:34:12;37.03;;;7.68;;
70010;SDS011;59543;37.950;-122.338;2022-12-29T01:36:38;40.17;;;9.10;;
70010;SDS011;59543;37.950;-122.338;2022-12-29T01:39:05;42.42;;;9.43;;
70010;SDS011;59543;37.950;-122.338;2022-12-29T01:41:31;41.95;;;9.30;;
70010;SDS011;59543;37.950;-122.338;2022-12-29T01:43:58;38.80;;;9.38;;
70010;SDS011;59543;37.950;-122.338;2022-12-29T01:46:33;50.08;;;9.57;;
70010;SDS011;59543;37.950;-122.338;2022-12-29T01:54:24;39.15;;;9.70;;
70010;SDS011;59543;37.950;-122.338;2022-12-29T01:56:59;35.60;;;8.70;;
70010;SDS011;59543;37.950;-122.338;2022-12-29T01:59:36;45.35;;;10.45;;
70010;SDS011;59543;37.950;-122.338;2022-12-29T02:02:12;54.13;;;10.32;;
70010;SDS011;59543;37.950;-122.338;2022-12-29T02:04:39;38.40;;;9.85;;
70010;SDS011;59543;37.950;-122.338;2022-12-29T02:07:17;45.58;;;9.85;;
70010;SDS011;59543;37.950;-122.338;2022-12-29T02:09:47;47.78;;;10.05;;
70010;SDS011;59543;37.950;-122.338;2022-12-29T02:12:18;40.97;;;9.63;;
70010;SDS011;59543;37.950;-122.338;2022-12-29T02:14:46;37.40;;;9.13;;
70010;SDS011;59543;37.950;-122.338;2022-12-29T02:20:17;35.30;;;8.35;;
70010;SDS011;59543;37.950;-122.338;2022-12-29T02:26:04;31.58;;;8.30;;
70010;SDS011;59543;37.950;-122.338;2022-12-29T02:37:03;42.15;;;10.20;;
70010;SDS011;59543;37.950;-122.338;2022-12-29T02:39:37;45.78;;;11.27;;
70010;SDS011;59543;37.950;-122.338;2022-12-29T02:45:16;57.92;;;10.85;;
70010;SDS011;59543;37.950;-122.338;2022-12-29T02:50:33;41.97;;;8.65;;
70010;SDS011;59543;37.950;-122.338;2022-12-29T02:53:11;48.00;;;9.82;;
70010;SDS011;59543;37.950;-122.338;2022-12-29T02:55:47;35.78;;;8.25;;
70010;SDS011;59543;37.950;-122.338;2022-12-29T02:58:19;46.53;;;8.95;;
70010;SDS011;59543;37.950;-122.338;2022-12-29T03:03:30;32.55;;;8.80;;
70010;SDS011;59543;37.950;-122.338;2022-12-29T03:11:58;39.75;;;9.15;;
70010;SDS011;59543;37.950;-122.338;2022-12-29T03:17:58;35.20;;;8.48;;
70010;SDS011;59543;37.950;-122.338;2022-12-29T03:20:33;37.13;;;9.10;;
70010;SDS011;59543;37.950;-122.338;2022-12-29T03:23:15;47.97;;;9.73;;
70010;SDS011;59543;37.950;-122.338;2022-12-29T03:25:47;35.60;;;8.70;;
70010;SDS011;59543;37.950;-122.338;2022-12-29T03:28:22;33.63;;;8.13;;
70010;SDS011;59543;37.950;-122.338;2022-12-29T03:30:53;31.70;;;8.02;;
70010;SDS011;59543;37.950;-122.338;2022-12-29T03:33:23;28.08;;;8.18;;
70010;SDS011;59543;37.950;-122.338;2022-12-29T03:35:54;30.83;;;8.40;;
70010;SDS011;59543;37.950;-122.338;2022-12-29T03:41:03;31.90;;;7.28;;
70010;SDS011;59543;37.950;-122.338;2022-12-29T03:43:33;31.83;;;8.05;;
70010;SDS011;59543;37.950;-122.338;2022-12-29T03:45:59;25.52;;;6.82;;
70010;SDS011;59543;37.950;-122.338;2022-12-29T03:48:26;28.80;;;7.07;;
70010;SDS011;59543;37.950;-122.338;2022-12-29T03:50:52;30.42;;;7.35;;
70010;SDS011;59543;37.950;-122.338;2022-12-29T03:53:18;40.00;;;7.30;;
70010;SDS011;59543;37.950;-122.338;2022-12-29T03:55:45;36.50;;;7.28;;
70010;SDS011;59543;37.950;-122.338;2022-12-29T03:58:11;28.73;;;7.22;;
70010;SDS011;59543;37.950;-122.338;2022-12-29T04:00:37;28.65;;;6.15;;
70010;SDS011;59543;37.950;-122.338;2022-12-29T04:03:03;28.13;;;6.43;;
70010;SDS011;59543;37.950;-122.338;2022-12-29T04:05:30;25.77;;;6.47;;
70010;SDS011;59543;37.950;-122.338;2022-12-29T04:07:56;21.08;;;5.80;;
70010;SDS011;59543;37.950;-122.338;2022-12-29T04:10:22;34.05;;;6.97;;
70010;SDS011;59543;37.950;-122.338;2022-12-29T04:12:49;22.00;;;6.78;;
70010;SDS011;59543;37.950;-122.338;2022-12-29T04:15:15;28.77;;;6.90;;
70010;SDS011;59543;37.950;-122.338;2022-12-29T04:17:41;26.13;;;6.78;;
70010;SDS011;59543;37.950;-122.338;2022-12-29T04:20:07;19.52;;;5.65;;
70010;SDS011;59543;37.950;-122.338;2022-12-29T04:22:59;28.67;;;7.13;;
70010;SDS011;59543;37.950;-122.338;2022-12-29T04:25:26;28.20;;;5.85;;
70010;SDS011;59543;37.950;-122.338;2022-12-29T04:27:53;22.95;;;6.10;;
70010;SDS011;59543;37.950;-122.338;2022-12-29T04:30:19;32.95;;;7.45;;
70010;SDS011;59543;37.950;-122.338;2022-12-29T04:32:45;26.75;;;6.95;;
70010;SDS011;59543;37.950;-122.338;2022-12-29T04:35:12;27.15;;;7.32;;
70010;SDS011;59543;37.950;-122.338;2022-12-29T04:37:38;29.50;;;7.53;;
70010;SDS011;59543;37.950;-122.338;2022-12-29T04:40:05;28.85;;;7.28;;
70010;SDS011;59543;37.950;-122.338;2022-12-29T04:42:31;26.95;;;6.80;;
70010;SDS011;59543;37.950;-122.338;2022-12-29T04:44:58;37.53;;;9.27;;
70010;SDS011;59543;37.950;-122.338;2022-12-29T04:47:24;36.53;;;8.82;;
70010;SDS011;59543;37.950;-122.338;2022-12-29T04:49:50;30.42;;;8.65;;
70010;SDS011;59543;37.950;-122.338;2022-12-29T04:52:16;26.00;;;8.05;;
70010;SDS011;59543;37.950;-122.338;2022-12-29T04:54:42;28.88;;;7.43;;
70010;SDS011;59543;37.950;-122.338;2022-12-29T04:57:09;26.45;;;7.65;;
70010;SDS011;59543;37.950;-122.338;2022-12-29T04:59:35;31.45;;;7.35;;
70010;SDS011;59543;37.950;-122.338;2022-12-29T05:02:01;28.08;;;7.38;;
70010;SDS011;59543;37.950;-122.338;2022-12-29T05:04:27;28.20;;;6.78;;
70010;SDS011;59543;37.950;-122.338;2022-12-29T05:06:53;28.60;;;6.70;;
70010;SDS011;59543;37.950;-122.338;2022-12-29T05:09:20;23.23;;;5.97;;
70010;SDS011;59543;37.950;-122.338;2022-12-29T05:11:46;26.20;;;6.50;;
70010;SDS011;59543;37.950;-122.338;2022-12-29T05:14:12;29.30;;;7.22;;
70010;SDS011;59543;37.950;-122.338;2022-12-29T05:16:38;23.90;;;6.63;;
70010;SDS011;59543;37.950;-122.338;2022-12-29T05:19:05;31.27;;;6.60;;
70010;SDS011;59543;37.950;-122.338;2022-12-29T05:21:31;31.52;;;6.47;;
70010;SDS011;59543;37.950;-122.338;2022-12-29T05:23:57;28.92;;;7.57;;
70010;SDS011;59543;37.950;-122.338;2022-12-29T05:26:23;26.98;;;7.32;;
70010;SDS011;59543;37.950;-122.338;2022-12-29T05:28:49;22.67;;;6.88;;
70010;SDS011;59543;37.950;-122.338;2022-12-29T05:31:16;21.38;;;6.25;;
70010;SDS011;59543;37.950;-122.338;2022-12-29T05:33:42;24.73;;;6.90;;
70010;SDS011;59543;37.950;-122.338;2022-12-29T05:36:08;20.50;;;5.82;;
70010;SDS011;59543;37.950;-122.338;2022-12-29T05:38:35;25.55;;;6.75;;
70010;SDS011;59543;37.950;-122.338;2022-12-29T05:41:01;26.75;;;6.60;;
70010;SDS011;59543;37.950;-122.338;2022-12-29T05:43:27;25.10;;;6.75;;
70010;SDS011;59543;37.950;-122.338;2022-12-29T05:45:54;21.42;;;6.30;;
70010;SDS011;59543;37.950;-122.338;2022-12-29T05:48:21;34.63;;;6.18;;
70010;SDS011;59543;37.950;-122.338;2022-12-29T05:50:48;33.67;;;6.70;;
70010;SDS011;59543;37.950;-122.338;2022-12-29T05:53:15;20.25;;;5.93;;
70010;SDS011;59543;37.950;-122.338;2022-12-29T05:55:42;31.40;;;6.70;;
70010;SDS011;59543;37.950;-122.338;2022-12-29T05:58:08;23.80;;;6.72;;
70010;SDS011;59543;37.950;-122.338;2022-12-29T06:00:35;29.48;;;6.68;;
70010;SDS011;59543;37.950;-122.338;2022-12-29T06:03:01;26.88;;;5.93;;
70010;SDS011;59543;37.950;-122.338;2022-12-29T06:05:28;28.98;;;7.28;;
70010;SDS011;59543;37.950;-122.338;2022-12-29T06:07:54;27.05;;;7.57;;
70010;SDS011;59543;37.950;-122.338;2022-12-29T06:10:20;30.85;;;8.20;;
70010;SDS011;59543;37.950;-122.338;2022-12-29T06:12:46;33.95;;;10.23;;
70010;SDS011;59543;37.950;-122.338;2022-12-29T06:15:13;31.63;;;9.02;;
70010;SDS011;59543;37.950;-122.338;2022-12-29T06:17:39;34.17;;;8.55;;
70010;SDS011;59543;37.950;-122.338;2022-12-29T06:20:06;27.27;;;8.00;;
70010;SDS011;59543;37.950;-122.338;2022-12-29T06:22:33;31.25;;;8.32;;
70010;SDS011;59543;37.950;-122.338;2022-12-29T06:25:00;37.05;;;10.10;;
70010;SDS011;59543;37.950;-122.338;2022-12-29T06:27:27;27.65;;;10.60;;
70010;SDS011;59543;37.950;-122.338;2022-12-29T06:29:53;33.25;;;10.65;;
70010;SDS011;59543;37.950;-122.338;2022-12-29T06:32:20;33.03;;;10.75;;
70010;SDS011;59543;37.950;-122.338;2022-12-29T06:34:46;37.55;;;9.18;;
70010;SDS011;59543;37.950;-122.338;2022-12-29T06:37:12;39.40;;;9.20;;
70010;SDS011;59543;37.950;-122.338;2022-12-29T06:39:39;32.17;;;8.35;;
70010;SDS011;59543;37.950;-122.338;2022-12-29T06:42:06;26.75;;;7.25;;
70010;SDS011;59543;37.950;-122.338;2022-12-29T06:44:34;24.58;;;6.78;;
70010;SDS011;59543;37.950;-122.338;2022-12-29T06:47:00;28.45;;;7.60;;
70010;SDS011;59543;37.950;-122.338;2022-12-29T06:49:26;30.27;;;6.38;;
70010;SDS011;59543;37.950;-122.338;2022-12-29T06:51:53;32.13;;;8.07;;
70010;SDS011;59543;37.950;-122.338;2022-12-29T06:54:19;26.08;;;6.68;;
70010;SDS011;59543;37.950;-122.338;2022-12-29T06:56:45;20.77;;;6.63;;
70010;SDS011;59543;37.950;-122.338;2022-12-29T06:59:11;24.27;;;7.30;;
70010;SDS011;59543;37.950;-122.338;2022-12-29T07:01:38;23.45;;;6.85;;
70010;SDS011;59543;37.950;-122.338;2022-12-29T07:04:04;36.50;;;8.38;;
70010;SDS011;59543;37.950;-122.338;2022-12-29T07:06:30;27.88;;;8.27;;
70010;SDS011;59543;37.950;-122.338;2022-12-29T07:08:56;29.13;;;8.40;;
70010;SDS011;59543;37.950;-122.338;2022-12-29T07:11:23;33.40;;;8.15;;
70010;SDS011;59543;37.950;-122.338;2022-12-29T07:13:49;23.45;;;7.07;;
70010;SDS011;59543;37.950;-122.338;2022-12-29T07:16:16;25.80;;;8.20;;
70010;SDS011;59543;37.950;-122.338;2022-12-29T07:18:42;25.48;;;8.57;;
70010;SDS011;59543;37.950;-122.338;2022-12-29T07:21:09;28.10;;;7.55;;
70010;SDS011;59543;37.950;-122.338;2022-12-29T07:23:35;31.52;;;7.80;;
70010;SDS011;59543;37.950;-122.338;2022-12-29T07:26:02;23.90;;;7.00;;
70010;SDS011;59543;37.950;-122.338;2022-12-29T07:28:29;33.50;;;6.90;;
70010;SDS011;59543;37.950;-122.338;2022-12-29T07:30:57;29.95;;;7.00;;
70010;SDS011;59543;37.950;-122.338;2022-12-29T07:33:24;34.20;;;7.43;;
70010;SDS011;59543;37.950;-122.338;2022-12-29T07:35:50;29.35;;;7.07;;
70010;SDS011;59543;37.950;-122.338;2022-12-29T07:38:16;27.52;;;6.70;;
70010;SDS011;59543;37.950;-122.338;2022-12-29T07:40:43;33.38;;;8.05;;
70010;SDS011;59543;37.950;-122.338;2022-12-29T07:43:09;29.35;;;7.47;;
70010;SDS011;59543;37.950;-122.338;2022-12-29T07:45:35;32.38;;;7.38;;
70010;SDS011;59543;37.950;-122.338;2022-12-29T07:48:01;29.48;;;7.40;;
70010;SDS011;59543;37.950;-122.338;2022-12-29T07:50:28;29.40;;;7.03;;
70010;SDS011;59543;37.950;-122.338;2022-12-29T07:52:54;34.35;;;7.45;;
70010;SDS011;59543;37.950;-122.338;2022-12-29T07:55:21;30.38;;;7.05;;
70010;SDS011;59543;37.950;-122.338;2022-12-29T07:57:47;23.65;;;6.57;;
70010;SDS011;59543;37.950;-122.338;2022-12-29T08:00:13;24.52;;;6.05;;
70010;SDS011;59543;37.950;-122.338;2022-12-29T08:02:40;26.63;;;6.82;;
70010;SDS011;59543;37.950;-122.338;2022-12-29T08:05:06;26.42;;;6.32;;
70010;SDS011;59543;37.950;-122.338;2022-12-29T08:07:32;26.60;;;6.72;;
70010;SDS011;59543;37.950;-122.338;2022-12-29T08:09:59;28.70;;;6.35;;
70010;SDS011;59543;37.950;-122.338;2022-12-29T08:12:26;25.08;;;6.40;;
70010;SDS011;59543;37.950;-122.338;2022-12-29T08:14:53;29.70;;;6.53;;
70010;SDS011;59543;37.950;-122.338;2022-12-29T08:17:19;31.85;;;6.25;;
70010;SDS011;59543;37.950;-122.338;2022-12-29T08:19:45;37.00;;;6.75;;
70010;SDS011;59543;37.950;-122.338;2022-12-29T08:22:12;31.10;;;7.13;;
70010;SDS011;59543;37.950;-122.338;2022-12-29T08:24:39;38.53;;;7.45;;
70010;SDS011;59543;37.950;-122.338;2022-12-29T08:27:06;29.52;;;6.82;;
70010;SDS011;59543;37.950;-122.338;2022-12-29T08:29:32;33.78;;;6.50;;
70010;SDS011;59543;37.950;-122.338;2022-12-29T08:31:58;32.05;;;6.78;;
70010;SDS011;59543;37.950;-122.338;2022-12-29T08:34:24;20.38;;;5.22;;
70010;SDS011;59543;37.950;-122.338;2022-12-29T08:36:50;36.95;;;5.90;;
70010;SDS011;59543;37.950;-122.338;2022-12-29T08:39:17;31.48;;;5.57;;
70010;SDS011;59543;37.950;-122.338;2022-12-29T08:41:43;23.17;;;5.28;;
70010;SDS011;59543;37.950;-122.338;2022-12-29T08:44:09;18.70;;;4.60;;
70010;SDS011;59543;37.950;-122.338;2022-12-29T08:46:35;22.20;;;4.28;;
70010;SDS011;59543;37.950;-122.338;2022-12-29T08:49:02;29.95;;;5.28;;
70010;SDS011;59543;37.950;-122.338;2022-12-29T08:51:28;23.10;;;4.85;;
70010;SDS011;59543;37.950;-122.338;2022-12-29T08:53:54;18.05;;;4.75;;
70010;SDS011;59543;37.950;-122.338;2022-12-29T08:56:20;19.73;;;4.60;;
70010;SDS011;59543;37.950;-122.338;2022-12-29T08:58:49;22.83;;;4.68;;
70010;SDS011;59543;37.950;-122.338;2022-12-29T09:01:16;27.25;;;4.65;;
70010;SDS011;59543;37.950;-122.338;2022-12-29T09:03:42;18.25;;;4.35;;
70010;SDS011;59543;37.950;-122.338;2022-12-29T09:06:09;26.08;;;5.03;;
70010;SDS011;59543;37.950;-122.338;2022-12-29T09:08:35;28.65;;;4.93;;
70010;SDS011;59543;37.950;-122.338;2022-12-29T09:11:08;21.17;;;4.60;;
70010;SDS011;59543;37.950;-122.338;2022-12-29T09:13:39;21.90;;;4.90;;
70010;SDS011;59543;37.950;-122.338;2022-12-29T09:16:05;23.15;;;5.32;;
70010;SDS011;59543;37.950;-122.338;2022-12-29T09:18:32;21.77;;;4.95;;
70010;SDS011;59543;37.950;-122.338;2022-12-29T09:20:59;27.23;;;5.03;;
70010;SDS011;59543;37.950;-122.338;2022-12-29T09:23:26;20.63;;;4.47;;
70010;SDS011;59543;37.950;-122.338;2022-12-29T09:25:53;22.27;;;4.65;;
70010;SDS011;59543;37.950;-122.338;2022-12-29T09:28:20;16.08;;;4.20;;
70010;SDS011;59543;37.950;-122.338;2022-12-29T09:30:47;25.30;;;4.80;;
70010;SDS011;59543;37.950;-122.338;2022-12-29T09:33:14;29.38;;;4.95;;
70010;SDS011;59543;37.950;-122.338;2022-12-29T09:35:44;18.95;;;4.72;;
70010;SDS011;59543;37.950;-122.338;2022-12-29T09:38:15;22.55;;;5.05;;
70010;SDS011;59543;37.950;-122.338;2022-12-29T09:40:43;19.88;;;4.88;;
70010;SDS011;59543;37.950;-122.338;2022-12-29T09:45:45;22.67;;;5.30;;
70010;SDS011;59543;37.950;-122.338;2022-12-29T09:48:22;38.37;;;5.70;;
70010;SDS011;59543;37.950;-122.338;2022-12-29T09:50:55;23.10;;;5.20;;
70010;SDS011;59543;37.950;-122.338;2022-12-29T09:53:26;32.08;;;5.82;;
70010;SDS011;59543;37.950;-122.338;2022-12-29T09:55:56;27.08;;;5.68;;
70010;SDS011;59543;37.950;-122.338;2022-12-29T10:01:06;30.20;;;6.28;;
70010;SDS011;59543;37.950;-122.338;2022-12-29T10:06:32;36.70;;;6.60;;
70010;SDS011;59543;37.950;-122.338;2022-12-29T10:23:50;27.27;;;6.05;;
70010;SDS011;59543;37.950;-122.338;2022-12-29T10:26:21;26.90;;;6.15;;
70010;SDS011;59543;37.950;-122.338;2022-12-29T10:28:53;26.70;;;5.80;;
70010;SDS011;59543;37.950;-122.338;2022-12-29T10:31:23;27.27;;;5.30;;
70010;SDS011;59543;37.950;-122.338;2022-12-29T10:33:56;25.55;;;5.72;;
70010;SDS011;59543;37.950;-122.338;2022-12-29T10:39:16;22.67;;;5.35;;
70010;SDS011;59543;37.950;-122.338;2022-12-29T10:41:55;21.00;;;5.20;;
70010;SDS011;59543;37.950;-122.338;2022-12-29T10:44:35;26.00;;;5.90;;
70010;SDS011;59543;37.950;-122.338;2022-12-29T10:47:06;29.35;;;5.32;;
70010;SDS011;59543;37.950;-122.338;2022-12-29T10:49:39;31.70;;;6.07;;
70010;SDS011;59543;37.950;-122.338;2022-12-29T10:52:08;23.45;;;4.78;;
70010;SDS011;59543;37.950;-122.338;2022-12-29T10:54:39;26.52;;;5.57;;
70010;SDS011;59543;37.950;-122.338;2022-12-29T11:00:16;24.77;;;5.53;;
70010;SDS011;59543;37.950;-122.338;2022-12-29T11:05:23;28.88;;;5.60;;
70010;SDS011;59543;37.950;-122.338;2022-12-29T11:08:03;23.95;;;5.20;;
70010;SDS011;59543;37.950;-122.338;2022-12-29T11:13:05;20.98;;;5.00;;
70010;SDS011;59543;37.950;-122.338;2022-12-29T11:15:42;24.02;;;6.50;;
70010;SDS011;59543;37.950;-122.338;2022-12-29T11:18:21;36.47;;;13.48;;
70010;SDS011;59543;37.950;-122.338;2022-12-29T11:20:55;41.58;;;14.48;;
70010;SDS011;59543;37.950;-122.338;2022-12-29T11:23:29;37.35;;;13.07;;
70010;SDS011;59543;37.950;-122.338;2022-12-29T11:28:36;30.17;;;10.27;;
70010;SDS011;59543;37.950;-122.338;2022-12-29T11:31:03;32.08;;;10.07;;
70010;SDS011;59543;37.950;-122.338;2022-12-29T11:33:32;40.85;;;9.23;;
70010;SDS011;59543;37.950;-122.338;2022-12-29T11:36:16;34.55;;;9.55;;
70010;SDS011;59543;37.950;-122.338;2022-12-29T11:38:46;28.27;;;8.70;;
70010;SDS011;59543;37.950;-122.338;2022-12-29T11:41:24;24.08;;;7.18;;
70010;SDS011;59543;37.950;-122.338;2022-12-29T11:43:58;42.42;;;7.40;;
70010;SDS011;59543;37.950;-122.338;2022-12-29T11:46:30;27.65;;;6.43;;
70010;SDS011;59543;37.950;-122.338;2022-12-29T11:48:59;23.02;;;6.32;;
70010;SDS011;59543;37.950;-122.338;2022-12-29T11:51:28;26.05;;;5.85;;
70010;SDS011;59543;37.950;-122.338;2022-12-29T11:54:01;26.77;;;6.00;;
70010;SDS011;59543;37.950;-122.338;2022-12-29T11:56:33;25.67;;;6.20;;
70010;SDS011;59543;37.950;-122.338;2022-12-29T12:01:56;25.77;;;5.78;;
70010;SDS011;59543;37.950;-122.338;2022-12-29T12:04:28;24.63;;;5.55;;
70010;SDS011;59543;37.950;-122.338;2022-12-29T12:07:01;24.10;;;5.70;;
70010;SDS011;59543;37.950;-122.338;2022-12-29T12:09:57;29.38;;;5.97;;
70010;SDS011;59543;37.950;-122.338;2022-12-29T12:12:28;26.30;;;5.15;;
70010;SDS011;59543;37.950;-122.338;2022-12-29T12:14:58;24.08;;;5.30;;
70010;SDS011;59543;37.950;-122.338;2022-12-29T12:23:12;23.08;;;5.35;;
70010;SDS011;59543;37.950;-122.338;2022-12-29T12:25:55;24.48;;;5.13;;
70010;SDS011;59543;37.950;-122.338;2022-12-29T12:28:43;21.38;;;5.07;;
70010;SDS011;59543;37.950;-122.338;2022-12-29T12:31:25;16.42;;;4.60;;
70010;SDS011;59543;37.950;-122.338;2022-12-29T12:33:59;17.30;;;3.97;;
70010;SDS011;59543;37.950;-122.338;2022-12-29T12:56:16;12.60;;;2.10;;
70010;SDS011;59543;37.950;-122.338;2022-12-29T12:59:07;8.18;;;1.50;;
70010;SDS011;59543;37.950;-122.338;2022-12-29T13:07:32;7.90;;;1.85;;
70010;SDS011;59543;37.950;-122.338;2022-12-29T13:10:27;6.35;;;1.70;;
70010;SDS011;59543;37.950;-122.338;2022-12-29T13:24:23;6.38;;;1.70;;
70010;SDS011;59543;37.950;-122.338;2022-12-29T13:27:29;10.60;;;2.00;;
70010;SDS011;59543;37.950;-122.338;2022-12-29T13:30:04;9.25;;;1.75;;
70010;SDS011;59543;37.950;-122.338;2022-12-29T13:32:46;7.53;;;1.90;;
70010;SDS011;59543;37.950;-122.338;2022-12-29T13:38:09;10.05;;;1.75;;
70010;SDS011;59543;37.950;-122.338;2022-12-29T13:40:38;8.20;;;1.75;;
70010;SDS011;59543;37.950;-122.338;2022-12-29T13:43:09;9.60;;;1.80;;
70010;SDS011;59543;37.950;-122.338;2022-12-29T13:45:36;9.15;;;2.00;;
70010;SDS011;59543;37.950;-122.338;2022-12-29T13:48:14;10.02;;;2.30;;
70010;SDS011;59543;37.950;-122.338;2022-12-29T13:50:53;10.18;;;2.22;;
70010;SDS011;59543;37.950;-122.338;2022-12-29T13:54:05;8.60;;;1.95;;
70010;SDS011;59543;37.950;-122.338;2022-12-29T13:56:37;8.85;;;1.88;;
70010;SDS011;59543;37.950;-122.338;2022-12-29T14:05:01;10.57;;;1.60;;
70010;SDS011;59543;37.950;-122.338;2022-12-29T14:07:36;7.00;;;1.27;;
70010;SDS011;59543;37.950;-122.338;2022-12-29T14:10:04;10.63;;;1.88;;
70010;SDS011;59543;37.950;-122.338;2022-12-29T14:12:40;7.68;;;1.60;;
70010;SDS011;59543;37.950;-122.338;2022-12-29T14:17:35;7.00;;;1.70;;
70010;SDS011;59543;37.950;-122.338;2022-12-29T14:20:03;7.25;;;1.90;;
70010;SDS011;59543;37.950;-122.338;2022-12-29T14:22:33;11.73;;;1.90;;
70010;SDS011;59543;37.950;-122.338;2022-12-29T14:24:59;8.20;;;2.00;;
70010;SDS011;59543;37.950;-122.338;2022-12-29T14:29:53;11.80;;;2.20;;
70010;SDS011;59543;37.950;-122.338;2022-12-29T14:34:56;10.43;;;1.67;;
70010;SDS011;59543;37.950;-122.338;2022-12-29T14:40:21;10.13;;;2.03;;
70010;SDS011;59543;37.950;-122.338;2022-12-29T14:42:43;8.02;;;1.98;;
70010;SDS011;59543;37.950;-122.338;2022-12-29T14:47:44;15.30;;;2.70;;
70010;SDS011;59543;37.950;-122.338;2022-12-29T14:50:22;9.23;;;2.22;;
70010;SDS011;59543;37.950;-122.338;2022-12-29T14:53:03;9.45;;;2.50;;
70010;SDS011;59543;37.950;-122.338;2022-12-29T14:55:38;7.80;;;1.92;;
70010;SDS011;59543;37.950;-122.338;2022-12-29T14:58:06;10.23;;;2.38;;
70010;SDS011;59543;37.950;-122.338;2022-12-29T15:00:38;9.88;;;2.58;;
70010;SDS011;59543;37.950;-122.338;2022-12-29T15:03:06;10.90;;;2.47;;
70010;SDS011;59543;37.950;-122.338;2022-12-29T15:05:43;7.97;;;2.53;;
70010;SDS011;59543;37.950;-122.338;2022-12-29T15:08:12;11.15;;;2.40;;
70010;SDS011;59543;37.950;-122.338;2022-12-29T15:10:43;8.70;;;2.22;;
70010;SDS011;59543;37.950;-122.338;2022-12-29T15:13:21;8.10;;;2.30;;
70010;SDS011;59543;37.950;-122.338;2022-12-29T15:15:50;7.47;;;1.90;;
70010;SDS011;59543;37.950;-122.338;2022-12-29T15:18:30;6.15;;;1.98;;
70010;SDS011;59543;37.950;-122.338;2022-12-29T15:21:02;7.22;;;1.98;;
70010;SDS011;59543;37.950;-122.338;2022-12-29T15:23:31;10.90;;;2.40;;
70010;SDS011;59543;37.950;-122.338;2022-12-29T15:28:28;8.40;;;2.00;;
70010;SDS011;59543;37.950;-122.338;2022-12-29T15:31:04;8.47;;;2.60;;
70010;SDS011;59543;37.950;-122.338;2022-12-29T15:33:38;7.43;;;2.03;;
70010;SDS011;59543;37.950;-122.338;2022-12-29T15:36:26;7.93;;;2.30;;
70010;SDS011;59543;37.950;-122.338;2022-12-29T15:41:37;7.75;;;1.90;;
70010;SDS011;59543;37.950;-122.338;2022-12-29T15:47:04;6.80;;;1.70;;
70010;SDS011;59543;37.950;-122.338;2022-12-29T15:49:35;7.97;;;2.05;;
70010;SDS011;59543;37.950;-122.338;2022-12-29T15:52:05;4.28;;;1.60;;
70010;SDS011;59543;37.950;-122.338;2022-12-29T15:54:33;9.75;;;1.80;;
70010;SDS011;59543;37.950;-122.338;2022-12-29T15:57:00;7.40;;;1.75;;
70010;SDS011;59543;37.950;-122.338;2022-12-29T15:59:28;6.10;;;1.92;;
70010;SDS011;59543;37.950;-122.338;2022-12-29T16:01:56;8.70;;;1.90;;
70010;SDS011;59543;37.950;-122.338;2022-12-29T16:04:25;10.07;;;1.80;;
70010;SDS011;59543;37.950;-122.338;2022-12-29T16:06:55;6.10;;;1.90;;
70010;SDS011;59543;37.950;-122.338;2022-12-29T16:12:25;5.53;;;1.52;;
70010;SDS011;59543;37.950;-122.338;2022-12-29T16:15:05;7.35;;;1.80;;
70010;SDS011;59543;37.950;-122.338;2022-12-29T16:17:58;5.38;;;1.48;;
70010;SDS011;59543;37.950;-122.338;2022-12-29T16:20:37;6.03;;;1.50;;
70010;SDS011;59543;37.950;-122.338;2022-12-29T16:23:09;4.85;;;1.60;;
70010;SDS011;59543;37.950;-122.338;2022-12-29T16:25:46;9.00;;;1.90;;
70010;SDS011;59543;37.950;-122.338;2022-12-29T16:28:23;4.75;;;1.83;;
70010;SDS011;59543;37.950;-122.338;2022-12-29T16:36:39;3.97;;;1.35;;
70010;SDS011;59543;37.950;-122.338;2022-12-29T16:50:42;4.90;;;1.35;;
70010;SDS011;59543;37.950;-122.338;2022-12-29T16:53:17;4.90;;;1.40;;
70010;SDS011;59543;37.950;-122.338;2022-12-29T16:55:51;4.32;;;1.10;;
70010;SDS011;59543;37.950;-122.338;2022-12-29T16:58:24;3.85;;;1.00;;
70010;SDS011;59543;37.950;-122.338;2022-12-29T17:00:54;5.70;;;1.30;;
70010;SDS011;59543;37.950;-122.338;2022-12-29T17:03:23;4.65;;;1.00;;
70010;SDS011;59543;37.950;-122.338;2022-12-29T17:05:58;7.30;;;1.30;;
70010;SDS011;59543;37.950;-122.338;2022-12-29T17:08:24;3.13;;;1.05;;
70010;SDS011;59543;37.950;-122.338;2022-12-29T17:10:51;4.35;;;1.33;;